Time;durP1;ratioP1;P1;durP2;ratioP2;P2;SDS_P1;SDS_P2;PMS_P1;PMS_P2;Temp;Humidity;BMP_temperature;BMP_pressure;BME280_temperature;BME280_humidity;BME280_pressure;Samples;Min_cycle;Max_cycle;Signal;HPM_P1;HPM_P2
2023/04/14 00:01:18;;;;;;;1.67;1.00;;;12.80;79.80;;;;;;5064067;28;20448;-50
2023/04/14 00:03:46;;;;;;;2.17;1.53;;;12.80;80.00;;;;;;5047420;28;20505;-48
2023/04/14 00:06:15;;;;;;;2.57;1.43;;;12.80;79.90;;;;;;5065434;28;20446;-50
2023/04/14 00:08:43;;;;;;;1.90;1.30;;;12.80;80.10;;;;;;5066139;28;20998;-49
2023/04/14 00:11:12;;;;;;;4.40;1.53;;;12.80;80.00;;;;;;5064606;28;20446;-51
2023/04/14 00:13:42;;;;;;;2.53;1.70;;;12.80;79.80;;;;;;5063699;28;20454;-49
2023/04/14 00:16:11;;;;;;;2.17;1.33;;;12.80;80.10;;;;;;5045153;28;20910;-50
2023/04/14 00:18:40;;;;;;;2.30;1.33;;;12.80;79.90;;;;;;5027251;28;20463;-51
2023/04/14 00:21:08;;;;;;;2.70;1.20;;;12.70;80.00;;;;;;5051042;28;20529;-50
2023/04/14 00:23:37;;;;;;;2.63;1.40;;;12.70;79.70;;;;;;5029020;28;20445;-50
2023/04/14 00:26:06;;;;;;;2.63;1.53;;;12.70;80.10;;;;;;5035690;28;20448;-50
2023/04/14 00:28:34;;;;;;;2.20;1.40;;;12.70;81.30;;;;;;5045586;28;20482;-51
2023/04/14 00:31:05;;;;;;;3.53;1.33;;;12.70;80.00;;;;;;5068389;28;20957;-49
2023/04/14 00:33:34;;;;;;;2.33;1.30;;;12.70;80.00;;;;;;5064446;28;20451;-50
2023/04/14 00:36:02;;;;;;;3.13;1.63;;;12.70;80.20;;;;;;5065991;28;20543;-49
2023/04/14 00:38:31;;;;;;;2.50;1.43;;;12.70;80.30;;;;;;5062394;28;20981;-49
2023/04/14 00:41:00;;;;;;;4.43;1.90;;;12.70;80.40;;;;;;5057981;28;20649;-49
2023/04/14 00:43:28;;;;;;;2.37;1.40;;;12.70;80.40;;;;;;5065148;28;20454;-51
2023/04/14 00:45:57;;;;;;;2.17;1.10;;;12.70;81.60;;;;;;5045158;28;20467;-49
2023/04/14 00:48:27;;;;;;;3.03;1.70;;;12.70;80.50;;;;;;5037844;28;20447;-49
2023/04/14 00:50:56;;;;;;;2.53;1.30;;;12.70;80.50;;;;;;5022626;28;20468;-50
2023/04/14 00:53:26;;;;;;;3.00;1.40;;;12.70;80.50;;;;;;5030598;28;20474;-48
2023/04/14 00:55:55;;;;;;;2.90;1.63;;;12.70;80.50;;;;;;5022346;28;20457;-50
2023/04/14 00:58:23;;;;;;;2.60;1.57;;;12.70;80.30;;;;;;5038056;28;20454;-49
2023/04/14 01:00:54;;;;;;;2.47;1.57;;;12.70;80.50;;;;;;5075329;28;20467;-48
2023/04/14 01:03:24;;;;;;;2.00;1.20;;;12.70;81.80;;;;;;5074662;28;20868;-49
2023/04/14 01:05:55;;;;;;;2.33;1.67;;;12.70;80.60;;;;;;5022205;28;20455;-50
2023/04/14 01:08:25;;;;;;;3.20;1.90;;;12.70;80.60;;;;;;5044914;28;20446;-50
2023/04/14 01:11:03;;;;;;;2.67;1.43;;;12.70;80.50;;;;;;5021800;28;20889;-49
2023/04/14 01:13:39;;;;;;;2.80;1.37;;;12.70;80.50;;;;;;5042738;28;20558;-50
2023/04/14 01:16:14;;;;;;;2.90;1.47;;;12.70;80.50;;;;;;5043197;28;20449;-49
2023/04/14 01:18:53;;;;;;;3.23;1.60;;;12.70;80.40;;;;;;5041984;28;20537;-50
2023/04/14 01:21:28;;;;;;;1.87;1.10;;;12.70;80.50;;;;;;5044076;28;20447;-50
2023/04/14 01:24:30;;;;;;;2.00;1.33;;;12.70;80.50;;;;;;5042319;28;20573;-50
2023/04/14 01:27:08;;;;;;;3.00;1.33;;;12.70;80.50;;;;;;5075721;28;20459;-50
2023/04/14 01:29:52;;;;;;;2.57;1.37;;;12.70;80.50;;;;;;5052093;28;20499;-49
2023/04/14 01:32:25;;;;;;;3.63;1.73;;;12.70;80.60;;;;;;5044375;28;20466;-50
2023/04/14 01:34:57;;;;;;;3.70;1.70;;;12.60;80.60;;;;;;5037032;28;20474;-49
2023/04/14 01:37:30;;;;;;;3.03;1.40;;;12.70;80.50;;;;;;5043001;28;20440;-50
2023/04/14 01:40:01;;;;;;;2.80;1.33;;;12.60;80.50;;;;;;5035955;28;20575;-48
2023/04/14 01:42:33;;;;;;;2.07;1.20;;;12.60;80.50;;;;;;5037437;28;20515;-50
2023/04/14 01:45:09;;;;;;;2.00;1.23;;;12.60;80.30;;;;;;5044061;28;20892;-50
2023/04/14 01:47:43;;;;;;;2.30;1.50;;;12.60;80.20;;;;;;5041994;28;20862;-50
2023/04/14 01:50:13;;;;;;;2.70;1.30;;;12.60;80.30;;;;;;5043799;28;20501;-50
2023/04/14 01:52:46;;;;;;;3.10;1.20;;;12.60;80.40;;;;;;5060399;28;20492;-50
2023/04/14 01:55:17;;;;;;;2.70;1.50;;;12.60;80.40;;;;;;5044371;28;20456;-50
2023/04/14 01:57:48;;;;;;;3.40;1.43;;;12.60;80.40;;;;;;5040532;28;20528;-50
2023/04/14 02:00:18;;;;;;;2.10;1.37;;;12.60;80.50;;;;;;5023115;28;20818;-49
2023/04/14 02:02:52;;;;;;;2.23;1.30;;;12.60;80.60;;;;;;5029207;28;21018;-50
2023/04/14 02:05:22;;;;;;;2.73;1.40;;;12.60;80.50;;;;;;5029013;28;20561;-50
2023/04/14 02:07:53;;;;;;;2.50;1.43;;;12.60;80.50;;;;;;5044626;28;21011;-49
2023/04/14 02:10:23;;;;;;;2.37;1.37;;;12.60;80.50;;;;;;5043363;28;21022;-50
2023/04/14 02:12:55;;;;;;;2.03;1.30;;;12.60;80.60;;;;;;5027599;28;20650;-50
2023/04/14 02:15:25;;;;;;;2.23;1.60;;;12.60;80.50;;;;;;5027371;28;20475;-48
2023/04/14 02:17:57;;;;;;;2.47;1.67;;;12.60;80.60;;;;;;5038949;28;20447;-49
2023/04/14 02:20:27;;;;;;;2.23;1.00;;;12.60;80.60;;;;;;5035191;28;20534;-50
2023/04/14 02:22:56;;;;;;;2.13;1.03;;;12.60;80.70;;;;;;5039201;28;21008;-50
2023/04/14 02:25:30;;;;;;;2.47;1.30;;;12.60;81.90;;;;;;5040237;28;20471;-49
2023/04/14 02:28:05;;;;;;;3.73;1.50;;;12.60;80.70;;;;;;5056386;28;20433;-50
2023/04/14 02:30:38;;;;;;;2.37;1.10;;;12.60;80.70;;;;;;5044936;28;20996;-50
2023/04/14 02:33:10;;;;;;;2.10;1.20;;;12.50;80.60;;;;;;5029667;28;20471;-51
2023/04/14 02:35:44;;;;;;;1.60;1.00;;;12.50;81.90;;;;;;5045089;28;20480;-49
2023/04/14 02:38:19;;;;;;;2.10;1.07;;;12.50;80.60;;;;;;5048641;28;20895;-49
2023/04/14 02:40:49;;;;;;;2.27;1.00;;;12.50;80.60;;;;;;5045331;28;20597;-50
2023/04/14 02:43:24;;;;;;;2.10;1.33;;;12.50;80.50;;;;;;5031663;28;20547;-49
2023/04/14 02:45:55;;;;;;;2.40;1.20;;;12.50;80.60;;;;;;5042014;28;20819;-49
2023/04/14 02:48:28;;;;;;;3.10;1.43;;;12.50;80.70;;;;;;5047179;28;20864;-50
2023/04/14 02:50:59;;;;;;;2.67;1.37;;;12.50;80.70;;;;;;5044128;28;20478;-51
2023/04/14 02:53:30;;;;;;;2.43;1.53;;;12.50;80.60;;;;;;5064491;28;20428;-50
2023/04/14 02:56:08;;;;;;;3.03;1.80;;;12.50;80.60;;;;;;5027529;28;20471;-50
2023/04/14 02:58:40;;;;;;;4.33;1.50;;;12.50;80.70;;;;;;5036258;28;20443;-50
2023/04/14 03:01:10;;;;;;;1.80;1.10;;;12.50;80.50;;;;;;5035394;28;20476;-49
2023/04/14 03:03:41;;;;;;;2.10;1.17;;;12.50;80.50;;;;;;5043856;28;20462;-48
2023/04/14 03:06:14;;;;;;;2.50;1.40;;;12.50;80.60;;;;;;5045628;28;20502;-48
2023/04/14 03:08:43;;;;;;;1.70;1.10;;;12.50;80.50;;;;;;5046082;28;20451;-48
2023/04/14 03:11:14;;;;;;;1.60;1.07;;;12.50;80.60;;;;;;5029840;28;20501;-50
2023/04/14 03:13:46;;;;;;;2.93;1.43;;;12.50;80.50;;;;;;5045599;28;20451;-49
2023/04/14 03:16:18;;;;;;;2.00;1.10;;;12.50;80.50;;;;;;5047879;28;20468;-50
2023/04/14 03:18:50;;;;;;;2.37;1.10;;;12.40;80.60;;;;;;5045588;28;20990;-50
2023/04/14 03:21:20;;;;;;;1.70;1.10;;;12.40;80.50;;;;;;5045145;28;21012;-49
2023/04/14 03:23:54;;;;;;;2.53;1.50;;;12.40;80.60;;;;;;5042586;28;20520;-51
2023/04/14 03:26:25;;;;;;;2.40;1.20;;;12.40;80.60;;;;;;5047291;28;20443;-50
2023/04/14 03:28:57;;;;;;;3.30;1.20;;;12.40;80.60;;;;;;5040335;28;21004;-50
2023/04/14 03:31:31;;;;;;;2.97;1.10;;;12.40;80.60;;;;;;5045773;28;20515;-49
2023/04/14 03:34:04;;;;;;;3.73;1.00;;;12.40;80.80;;;;;;5009939;28;20494;-49
2023/04/14 03:36:37;;;;;;;3.07;1.00;;;12.40;80.70;;;;;;5083897;28;20435;-51
2023/04/14 03:39:11;;;;;;;2.20;1.17;;;12.40;80.60;;;;;;5059130;28;20450;-49
2023/04/14 03:41:46;;;;;;;2.60;1.10;;;12.40;80.70;;;;;;5052241;28;20455;-50
2023/04/14 03:44:18;;;;;;;2.33;1.00;;;12.40;80.70;;;;;;5057235;28;20467;-49
2023/04/14 03:46:50;;;;;;;2.70;1.33;;;12.40;80.70;;;;;;5063752;28;20436;-48
2023/04/14 03:49:23;;;;;;;2.90;0.93;;;12.40;80.60;;;;;;5061357;28;20448;-50
2023/04/14 03:51:54;;;;;;;2.63;1.17;;;12.40;80.60;;;;;;5022748;28;20509;-50
2023/04/14 03:54:26;;;;;;;2.47;1.17;;;12.40;80.70;;;;;;5060340;28;20480;-49
2023/04/14 03:56:57;;;;;;;3.10;1.27;;;12.40;80.80;;;;;;5022773;28;20472;-49
2023/04/14 03:59:28;;;;;;;2.37;1.27;;;12.40;80.80;;;;;;5061740;28;20460;-50
2023/04/14 04:01:59;;;;;;;2.07;0.97;;;12.30;80.70;;;;;;5041067;28;20465;-49
2023/04/14 04:04:30;;;;;;;2.30;1.37;;;12.30;80.70;;;;;;5061269;28;20549;-51
2023/04/14 04:07:00;;;;;;;1.80;0.80;;;12.30;80.70;;;;;;5061738;28;20453;-50
2023/04/14 04:09:29;;;;;;;6.53;1.50;;;12.30;80.90;;;;;;5031139;28;20446;-49
2023/04/14 04:12:01;;;;;;;1.80;1.00;;;12.30;80.80;;;;;;5058982;28;20821;-49
2023/04/14 04:14:32;;;;;;;2.23;1.10;;;12.30;80.90;;;;;;5060385;28;20463;-49
2023/04/14 04:17:05;;;;;;;2.10;1.00;;;12.30;81.00;;;;;;5041145;28;20531;-49
2023/04/14 04:19:37;;;;;;;2.27;1.30;;;12.30;81.00;;;;;;5061605;28;20475;-50
2023/04/14 04:22:07;;;;;;;2.63;1.07;;;12.30;80.70;;;;;;5062160;28;21042;-49
2023/04/14 04:24:39;;;;;;;1.80;1.20;;;12.30;80.80;;;;;;5028121;28;20491;-48
2023/04/14 04:27:15;;;;;;;2.83;1.20;;;12.30;80.70;;;;;;5060895;28;20451;-48
2023/04/14 04:29:58;;;;;;;2.30;1.17;;;12.30;80.90;;;;;;5063019;28;20561;-50
2023/04/14 04:32:28;;;;;;;1.70;0.97;;;12.30;81.00;;;;;;5056843;28;20505;-48
2023/04/14 04:35:00;;;;;;;2.00;1.10;;;12.30;81.00;;;;;;5028958;28;20497;-50
2023/04/14 04:37:32;;;;;;;5.43;1.63;;;12.30;81.00;;;;;;5038489;28;20559;-49
2023/04/14 04:40:01;;;;;;;2.77;1.13;;;12.30;80.90;;;;;;5057224;28;20459;-50
2023/04/14 04:42:30;;;;;;;1.80;1.20;;;12.30;81.00;;;;;;5081256;28;20469;-50
2023/04/14 04:44:59;;;;;;;2.63;1.40;;;12.20;80.80;;;;;;5069586;28;20493;-49
2023/04/14 04:47:27;;;;;;;2.90;1.40;;;12.20;80.80;;;;;;5044145;28;20478;-50
2023/04/14 04:49:56;;;;;;;3.77;1.50;;;12.20;81.00;;;;;;5056789;28;20487;-49
2023/04/14 04:52:26;;;;;;;2.43;1.20;;;12.20;80.80;;;;;;5057844;28;20473;-50
2023/04/14 04:54:55;;;;;;;1.83;1.30;;;12.20;80.80;;;;;;5057614;28;20565;-50
2023/04/14 04:57:24;;;;;;;2.07;1.17;;;12.20;81.00;;;;;;5055681;28;21036;-49
2023/04/14 04:59:52;;;;;;;2.30;1.20;;;12.20;80.90;;;;;;5057919;28;21053;-51
2023/04/14 05:02:21;;;;;;;2.50;1.40;;;12.20;81.00;;;;;;5062051;28;20463;-51
2023/04/14 05:04:50;;;;;;;2.83;1.20;;;12.20;81.10;;;;;;5064222;28;20500;-49
2023/04/14 05:07:19;;;;;;;3.97;1.23;;;12.20;81.00;;;;;;5048400;28;20504;-49
2023/04/14 05:09:49;;;;;;;2.00;1.30;;;12.20;81.00;;;;;;5063467;28;20478;-49
2023/04/14 05:12:18;;;;;;;2.43;1.27;;;12.20;81.00;;;;;;5078720;28;20499;-50
2023/04/14 05:14:47;;;;;;;2.63;1.43;;;12.20;80.70;;;;;;5063993;28;20475;-50
2023/04/14 05:17:15;;;;;;;4.80;1.20;;;12.20;80.30;;;;;;5051735;28;20446;-48
2023/04/14 05:19:44;;;;;;;4.80;2.00;;;12.10;80.50;;;;;;5063978;28;20470;-49
2023/04/14 05:22:13;;;;;;;2.17;1.23;;;12.20;80.90;;;;;;5061866;28;20445;-50
2023/04/14 05:24:42;;;;;;;2.40;0.97;;;12.10;81.00;;;;;;5037563;28;20815;-50
2023/04/14 05:27:12;;;;;;;4.13;1.70;;;12.10;81.00;;;;;;5058685;28;20455;-49
2023/04/14 05:29:42;;;;;;;1.80;1.07;;;12.10;81.00;;;;;;5080316;28;20446;-49
2023/04/14 05:32:12;;;;;;;2.20;1.33;;;12.20;81.10;;;;;;5060328;28;20483;-50
2023/04/14 05:34:41;;;;;;;4.47;1.60;;;12.10;81.10;;;;;;5079667;28;20470;-49
2023/04/14 05:37:09;;;;;;;1.90;1.27;;;12.10;81.00;;;;;;5047885;28;21203;-50
2023/04/14 05:39:38;;;;;;;2.20;1.27;;;12.10;81.00;;;;;;5078701;28;20461;-50
2023/04/14 05:42:07;;;;;;;2.13;1.10;;;12.10;81.00;;;;;;5076992;28;20458;-49
2023/04/14 05:44:37;;;;;;;2.30;1.30;;;12.10;81.00;;;;;;5053286;28;20457;-50
2023/04/14 05:47:06;;;;;;;2.07;0.93;;;12.10;81.20;;;;;;5063661;28;20452;-50
2023/04/14 05:49:35;;;;;;;2.13;0.97;;;12.10;81.30;;;;;;5080319;28;21012;-50
2023/04/14 05:52:03;;;;;;;2.30;1.30;;;12.10;81.10;;;;;;5063942;28;20477;-50
2023/04/14 05:54:32;;;;;;;3.97;1.50;;;12.10;81.20;;;;;;5049237;28;20433;-50
2023/04/14 05:57:00;;;;;;;2.37;1.43;;;12.10;81.20;;;;;;5078996;28;20458;-50
2023/04/14 05:59:29;;;;;;;4.20;1.33;;;12.10;81.20;;;;;;5064568;28;20832;-50
2023/04/14 06:02:03;;;;;;;3.10;1.30;;;12.10;81.20;;;;;;5080631;28;20810;-49
2023/04/14 06:04:32;;;;;;;2.50;1.00;;;12.10;81.30;;;;;;5064085;28;20477;-49
2023/04/14 06:07:01;;;;;;;2.40;1.10;;;12.10;81.50;;;;;;5068032;28;20490;-49
2023/04/14 06:09:30;;;;;;;1.67;1.17;;;12.10;81.50;;;;;;5051345;28;20445;-49
2023/04/14 06:12:00;;;;;;;2.97;1.50;;;12.10;81.50;;;;;;5044957;28;20473;-50
2023/04/14 06:14:28;;;;;;;2.47;1.20;;;12.10;81.00;;;;;;5051458;28;20440;-50
2023/04/14 06:16:58;;;;;;;2.20;1.37;;;12.10;81.40;;;;;;5067102;28;20462;-50
2023/04/14 06:19:27;;;;;;;2.30;1.17;;;12.10;81.50;;;;;;5080769;28;20489;-48
2023/04/14 06:21:56;;;;;;;2.30;1.30;;;12.10;81.70;;;;;;5067890;28;21046;-49
2023/04/14 06:24:24;;;;;;;2.30;1.30;;;12.00;81.70;;;;;;5069750;28;20462;-48
2023/04/14 06:26:53;;;;;;;1.93;1.40;;;12.10;81.80;;;;;;5045910;28;20441;-49
2023/04/14 06:29:21;;;;;;;2.57;1.30;;;12.10;81.70;;;;;;5054138;28;20431;-49
2023/04/14 06:31:50;;;;;;;2.40;1.40;;;12.00;81.50;;;;;;5051942;28;20457;-50
2023/04/14 06:34:21;;;;;;;2.70;1.30;;;12.00;81.80;;;;;;5067503;28;20473;-49
2023/04/14 06:36:50;;;;;;;2.70;1.50;;;12.00;81.50;;;;;;5068615;28;20438;-49
2023/04/14 06:39:20;;;;;;;2.60;1.37;;;12.00;80.80;;;;;;5050974;28;21025;-50
2023/04/14 06:41:49;;;;;;;3.03;1.10;;;12.00;80.60;;;;;;5067985;28;20504;-50
2023/04/14 06:44:18;;;;;;;3.00;1.37;;;12.00;80.80;;;;;;5065411;28;20820;-49
2023/04/14 06:46:50;;;;;;;2.90;1.60;;;12.00;80.50;;;;;;5051206;28;20437;-50
2023/04/14 06:49:22;;;;;;;2.30;1.30;;;12.00;80.90;;;;;;5048178;28;20511;-50
2023/04/14 06:51:51;;;;;;;2.50;1.20;;;12.00;80.50;;;;;;5067776;28;20531;-49
2023/04/14 06:54:20;;;;;;;2.13;1.13;;;12.10;81.00;;;;;;5066974;28;21262;-49
2023/04/14 06:56:48;;;;;;;3.00;1.93;;;12.00;81.20;;;;;;5067789;28;20435;-49
2023/04/14 06:59:19;;;;;;;2.23;1.07;;;12.10;81.40;;;;;;5053125;28;20445;-48
2023/04/14 07:01:48;;;;;;;2.93;1.27;;;12.10;81.50;;;;;;5064532;28;20586;-49
2023/04/14 07:04:18;;;;;;;2.30;1.20;;;12.10;81.60;;;;;;5048252;28;20472;-50
2023/04/14 07:06:48;;;;;;;3.37;1.17;;;12.10;81.60;;;;;;5067755;28;20435;-49
2023/04/14 07:09:17;;;;;;;2.13;1.10;;;12.10;81.60;;;;;;5050497;28;20489;-50
2023/04/14 07:11:46;;;;;;;1.97;1.03;;;12.10;81.50;;;;;;5067792;28;20962;-49
2023/04/14 07:14:15;;;;;;;1.93;1.20;;;12.10;81.50;;;;;;5048745;28;20856;-49
2023/04/14 07:16:44;;;;;;;2.50;1.40;;;12.10;81.50;;;;;;5085934;28;20443;-49
2023/04/14 07:19:12;;;;;;;2.00;1.10;;;12.10;81.50;;;;;;5069157;28;20456;-50
2023/04/14 07:21:41;;;;;;;1.93;1.13;;;12.10;81.50;;;;;;5049402;28;20601;-50
2023/04/14 07:24:12;;;;;;;2.67;1.10;;;12.20;81.60;;;;;;5068459;28;20446;-50
2023/04/14 07:26:43;;;;;;;2.80;1.40;;;12.20;81.60;;;;;;5048601;28;20439;-50
2023/04/14 07:29:12;;;;;;;3.10;1.30;;;12.20;81.60;;;;;;5063708;28;20485;-54
2023/04/14 07:31:41;;;;;;;2.10;1.40;;;12.20;81.50;;;;;;5047500;28;20478;-51
2023/04/14 07:34:10;;;;;;;3.03;1.30;;;12.30;80.50;;;;;;5045958;28;20529;-49
2023/04/14 07:36:39;;;;;;;1.97;1.20;;;12.30;80.70;;;;;;5031135;28;20538;-49
2023/04/14 07:39:07;;;;;;;3.30;1.10;;;12.30;80.60;;;;;;5029711;28;20472;-51
2023/04/14 07:41:38;;;;;;;4.70;1.10;;;12.30;80.80;;;;;;5047308;28;20859;-49
2023/04/14 07:44:06;;;;;;;3.20;1.37;;;12.30;80.70;;;;;;5041717;28;20454;-49
2023/04/14 07:46:35;;;;;;;1.90;1.20;;;12.30;80.70;;;;;;5046797;28;20463;-50
2023/04/14 07:49:04;;;;;;;1.90;0.90;;;12.30;80.90;;;;;;5050657;28;20990;-50
2023/04/14 07:51:33;;;;;;;2.53;1.47;;;12.30;80.50;;;;;;5066361;28;20478;-50
2023/04/14 07:54:02;;;;;;;2.10;1.27;;;12.30;80.30;;;;;;5065339;28;20493;-51
2023/04/14 07:56:31;;;;;;;3.83;1.33;;;12.30;80.50;;;;;;5050093;28;21038;-51
2023/04/14 07:59:01;;;;;;;2.80;1.00;;;12.30;80.20;;;;;;5082163;28;20976;-50
2023/04/14 08:01:30;;;;;;;2.53;1.23;;;12.30;80.50;;;;;;5088783;28;20450;-50
2023/04/14 08:03:59;;;;;;;2.43;1.43;;;12.30;80.50;;;;;;5058355;28;20472;-51
2023/04/14 08:06:28;;;;;;;2.53;1.30;;;12.30;80.40;;;;;;5084373;28;20828;-50
2023/04/14 08:08:57;;;;;;;2.47;1.20;;;12.30;80.30;;;;;;5053253;28;20469;-50
2023/04/14 08:11:26;;;;;;;2.70;1.50;;;12.30;80.50;;;;;;5056387;28;20465;-51
2023/04/14 08:13:55;;;;;;;2.40;1.10;;;12.30;80.50;;;;;;5046389;28;21004;-49
2023/04/14 08:16:25;;;;;;;3.13;1.30;;;12.30;80.60;;;;;;5069128;28;20437;-50
2023/04/14 08:18:54;;;;;;;2.67;1.70;;;12.30;80.70;;;;;;5049291;28;20453;-50
2023/04/14 08:21:25;;;;;;;2.57;1.30;;;12.30;80.70;;;;;;5070889;28;20478;-51
2023/04/14 08:23:54;;;;;;;2.43;1.03;;;12.30;80.70;;;;;;5060726;28;20487;-50
2023/04/14 08:26:23;;;;;;;2.80;1.37;;;12.30;80.60;;;;;;5081773;28;20441;-48
2023/04/14 08:28:52;;;;;;;2.47;1.30;;;12.30;80.80;;;;;;5066412;28;20416;-49
2023/04/14 08:31:25;;;;;;;2.03;0.83;;;12.30;80.70;;;;;;5057230;28;20485;-50
2023/04/14 08:33:54;;;;;;;2.07;1.10;;;12.30;80.70;;;;;;5058648;28;20470;-49
2023/04/14 08:36:22;;;;;;;1.90;1.10;;;12.30;80.60;;;;;;5063549;28;20436;-50
2023/04/14 08:38:52;;;;;;;1.63;0.90;;;12.30;80.50;;;;;;5054418;28;20444;-49
2023/04/14 08:41:21;;;;;;;3.93;1.40;;;12.30;80.60;;;;;;5066220;28;20476;-49
2023/04/14 08:43:49;;;;;;;1.80;0.93;;;12.30;80.60;;;;;;5049878;28;20496;-51
2023/04/14 08:46:20;;;;;;;2.40;1.40;;;12.30;80.60;;;;;;5052301;28;20508;-49
2023/04/14 08:48:53;;;;;;;1.97;1.07;;;12.30;80.70;;;;;;5048060;28;20831;-50
2023/04/14 08:51:31;;;;;;;2.97;1.27;;;12.30;80.60;;;;;;5063653;28;20444;-50
2023/04/14 08:54:01;;;;;;;2.77;1.20;;;12.30;80.60;;;;;;5061390;28;20481;-52
2023/04/14 08:56:33;;;;;;;3.13;1.47;;;12.30;80.60;;;;;;5049619;28;20488;-50
2023/04/14 08:59:02;;;;;;;2.50;1.30;;;12.30;80.80;;;;;;5061756;28;20470;-49
2023/04/14 09:01:34;;;;;;;2.43;1.10;;;12.30;80.70;;;;;;5045169;28;20557;-50
2023/04/14 09:04:05;;;;;;;2.90;1.43;;;12.30;80.80;;;;;;5043911;28;20451;-50
2023/04/14 09:06:35;;;;;;;2.87;1.23;;;12.30;80.70;;;;;;5030338;28;20522;-51
2023/04/14 09:09:06;;;;;;;2.20;1.00;;;12.30;80.70;;;;;;5041891;28;20971;-50
2023/04/14 09:11:36;;;;;;;2.43;1.10;;;12.30;80.60;;;;;;5053870;28;20469;-50
2023/04/14 09:14:05;;;;;;;2.47;1.27;;;12.30;80.70;;;;;;5060837;28;20553;-50
2023/04/14 09:16:34;;;;;;;1.70;1.13;;;12.40;80.90;;;;;;5082819;28;20860;-48
2023/04/14 09:19:04;;;;;;;2.10;1.23;;;12.30;80.80;;;;;;5075412;28;20475;-51
2023/04/14 09:21:39;;;;;;;2.63;1.53;;;12.30;80.90;;;;;;5029367;28;20463;-50
2023/04/14 09:24:27;;;;;;;3.77;1.53;;;12.30;81.00;;;;;;5062615;28;20427;-50
2023/04/14 09:27:02;;;;;;;2.43;1.13;;;12.30;81.00;;;;;;5022722;28;20442;-50
2023/04/14 09:29:31;;;;;;;2.63;1.00;;;12.30;81.00;;;;;;5028285;28;20545;-50
2023/04/14 09:32:00;;;;;;;2.23;1.10;;;12.30;81.00;;;;;;5061072;28;20447;-49
2023/04/14 09:34:32;;;;;;;4.20;1.13;;;12.30;80.90;;;;;;5060154;28;20466;-50
2023/04/14 09:37:03;;;;;;;2.83;1.20;;;12.30;81.10;;;;;;5061659;28;20520;-51
2023/04/14 09:39:32;;;;;;;3.40;1.37;;;12.30;81.00;;;;;;5027819;28;20486;-48
2023/04/14 09:42:01;;;;;;;3.00;1.20;;;12.30;81.20;;;;;;5058205;28;20466;-49
2023/04/14 09:44:30;;;;;;;2.93;1.20;;;12.30;82.30;;;;;;5062232;28;20435;-49
2023/04/14 09:47:00;;;;;;;2.17;1.00;;;12.30;81.20;;;;;;5033832;28;20447;-49
2023/04/14 09:49:31;;;;;;;2.17;1.20;;;12.30;81.30;;;;;;5059567;28;20462;-50
2023/04/14 09:52:04;;;;;;;2.10;1.00;;;12.30;81.20;;;;;;5061805;28;20486;-50
2023/04/14 09:54:33;;;;;;;2.83;1.13;;;12.30;81.50;;;;;;5042026;28;20493;-49
2023/04/14 09:57:02;;;;;;;3.20;1.30;;;12.30;81.40;;;;;;5068901;28;20450;-50
2023/04/14 09:59:33;;;;;;;2.20;1.43;;;12.30;81.40;;;;;;5028355;28;20479;-49
2023/04/14 10:02:05;;;;;;;2.63;1.20;;;12.30;81.40;;;;;;5030802;28;20517;-49
2023/04/14 10:04:36;;;;;;;2.10;1.10;;;12.30;81.40;;;;;;5062670;28;20530;-50
2023/04/14 10:07:06;;;;;;;3.30;1.37;;;12.30;81.40;;;;;;5064005;28;20481;-50
2023/04/14 10:09:37;;;;;;;2.33;1.20;;;12.30;81.50;;;;;;5028151;28;20458;-50
2023/04/14 10:12:10;;;;;;;1.83;1.10;;;12.30;81.50;;;;;;5039186;28;20462;-50
2023/04/14 10:14:41;;;;;;;2.77;1.53;;;12.30;81.50;;;;;;5029643;28;20471;-51
2023/04/14 10:17:10;;;;;;;2.37;1.20;;;12.30;81.70;;;;;;5040034;28;20445;-51
2023/04/14 10:19:40;;;;;;;3.10;1.33;;;12.30;81.50;;;;;;5044894;28;20456;-51
2023/04/14 10:22:10;;;;;;;2.50;1.20;;;12.30;81.60;;;;;;5043824;28;20465;-50
2023/04/14 10:24:40;;;;;;;2.43;1.20;;;12.30;81.70;;;;;;5052094;28;20487;-49
2023/04/14 10:27:09;;;;;;;2.70;1.13;;;12.30;81.70;;;;;;5063612;28;20445;-49
2023/04/14 10:29:41;;;;;;;2.50;1.47;;;12.30;81.80;;;;;;5064358;28;20452;-51
2023/04/14 10:32:14;;;;;;;1.90;1.60;;;12.30;81.40;;;;;;5046390;28;20481;-49
2023/04/14 10:34:59;;;;;;;2.00;1.00;;;12.30;81.80;;;;;;5059862;28;20572;-50
2023/04/14 10:37:28;;;;;;;1.87;1.27;;;12.30;81.70;;;;;;5064503;28;20952;-51
2023/04/14 10:39:58;;;;;;;3.40;1.03;;;12.30;81.70;;;;;;5055088;28;20487;-49
2023/04/14 10:42:29;;;;;;;2.63;1.07;;;12.30;81.70;;;;;;5026352;28;20470;-49
2023/04/14 10:45:06;;;;;;;2.10;1.20;;;12.30;81.90;;;;;;5025387;28;20475;-50
2023/04/14 10:47:40;;;;;;;1.90;1.10;;;12.30;82.00;;;;;;5030979;28;20551;-50
2023/04/14 10:50:18;;;;;;;1.90;1.20;;;12.30;82.00;;;;;;5056318;28;20473;-48
2023/04/14 10:52:50;;;;;;;2.00;1.03;;;12.30;81.90;;;;;;5048711;28;20469;-50
2023/04/14 10:55:22;;;;;;;2.50;0.90;;;12.30;82.00;;;;;;5067130;28;20532;-52
2023/04/14 10:57:53;;;;;;;2.27;0.90;;;12.30;81.70;;;;;;5048509;28;20433;-50
2023/04/14 11:00:25;;;;;;;3.47;1.10;;;12.30;81.90;;;;;;5061041;28;20501;-49
2023/04/14 11:02:56;;;;;;;1.70;1.10;;;12.30;82.10;;;;;;5040955;28;20477;-50
2023/04/14 11:05:26;;;;;;;3.17;1.40;;;12.30;82.10;;;;;;5064164;28;20464;-50
2023/04/14 11:07:57;;;;;;;2.67;0.90;;;12.30;82.20;;;;;;5040245;28;20450;-49
2023/04/14 11:10:32;;;;;;;2.37;1.30;;;12.30;82.20;;;;;;5062759;28;20500;-48
2023/04/14 11:13:07;;;;;;;2.50;1.17;;;12.30;82.10;;;;;;5063476;28;20974;-49
2023/04/14 11:15:50;;;;;;;2.20;1.17;;;12.30;82.10;;;;;;5057668;28;21022;-49
2023/04/14 11:18:21;;;;;;;2.20;1.10;;;12.30;82.20;;;;;;5063510;28;20528;-50
2023/04/14 11:20:54;;;;;;;3.10;0.87;;;12.30;82.30;;;;;;5067962;28;20481;-50
2023/04/14 11:23:28;;;;;;;1.90;1.20;;;12.30;82.50;;;;;;5069674;28;20456;-50
2023/04/14 11:25:57;;;;;;;2.20;1.30;;;12.30;82.40;;;;;;5062271;28;21004;-48
2023/04/14 11:28:30;;;;;;;1.77;1.00;;;12.30;81.80;;;;;;5053888;28;20958;-50
2023/04/14 11:31:00;;;;;;;3.80;1.13;;;12.30;81.80;;;;;;5044380;28;20554;-50
2023/04/14 11:33:30;;;;;;;3.50;1.70;;;12.30;81.40;;;;;;5055208;28;20444;-46
2023/04/14 11:36:05;;;;;;;3.10;2.10;;;12.40;78.00;;;;;;5064758;28;20700;-48
2023/04/14 11:38:35;;;;;;;3.70;1.40;;;12.50;76.60;;;;;;5065665;28;20536;-47
2023/04/14 11:41:04;;;;;;;3.13;1.60;;;12.60;75.30;;;;;;5061369;28;20527;-47
2023/04/14 11:43:33;;;;;;;2.90;1.83;;;12.60;74.80;;;;;;5060672;28;20457;-49
2023/04/14 11:46:06;;;;;;;3.10;1.50;;;12.60;74.10;;;;;;5061813;28;20475;-48
2023/04/14 11:48:36;;;;;;;2.50;1.50;;;12.60;74.20;;;;;;5026746;28;20474;-48
2023/04/14 11:51:06;;;;;;;4.23;1.83;;;12.60;73.40;;;;;;5061840;28;20496;-48
2023/04/14 11:53:39;;;;;;;1.87;1.33;;;12.60;73.60;;;;;;5067570;28;20626;-48
2023/04/14 11:56:08;;;;;;;4.00;1.77;;;12.60;73.70;;;;;;5061013;28;20565;-49
2023/04/14 11:58:36;;;;;;;3.37;1.73;;;12.60;73.10;;;;;;5033571;28;20431;-48
2023/04/14 12:01:06;;;;;;;4.87;1.70;;;12.60;73.50;;;;;;5084803;28;20478;-50
2023/04/14 12:03:37;;;;;;;4.67;1.70;;;12.60;73.30;;;;;;5067097;28;20478;-49
2023/04/14 12:06:09;;;;;;;5.10;1.90;;;12.70;73.30;;;;;;5046980;28;20443;-49
2023/04/14 12:08:37;;;;;;;3.40;1.70;;;12.70;73.10;;;;;;5032797;28;20447;-49
2023/04/14 12:11:13;;;;;;;2.87;1.20;;;12.70;73.00;;;;;;5028203;28;20476;-48
2023/04/14 12:13:43;;;;;;;2.87;1.40;;;12.70;73.10;;;;;;5030649;28;20512;-49
2023/04/14 12:16:12;;;;;;;3.20;1.23;;;12.70;73.70;;;;;;5048008;28;20464;-49
2023/04/14 12:18:41;;;;;;;3.70;1.27;;;12.60;73.20;;;;;;5044806;28;20447;-49
2023/04/14 12:21:17;;;;;;;2.27;1.30;;;12.60;73.60;;;;;;5046734;28;20474;-49
2023/04/14 12:23:48;;;;;;;4.07;1.53;;;12.60;73.40;;;;;;5031918;28;20823;-47
2023/04/14 12:26:17;;;;;;;7.00;1.23;;;12.60;73.20;;;;;;5046514;28;20792;-49
2023/04/14 12:28:55;;;;;;;2.97;1.30;;;12.60;72.60;;;;;;5028721;28;20441;-50
2023/04/14 12:31:28;;;;;;;3.50;1.63;;;12.60;72.70;;;;;;5062432;28;20456;-48
2023/04/14 12:34:02;;;;;;;3.53;1.33;;;12.60;72.90;;;;;;5048910;28;20524;-49
2023/04/14 12:36:32;;;;;;;2.73;1.40;;;12.60;71.40;;;;;;5045651;28;20542;-46
2023/04/14 12:39:17;;;;;;;2.97;1.20;;;12.60;71.10;;;;;;5034386;28;20474;-49
2023/04/14 12:41:46;;;;;;;3.93;1.30;;;12.60;71.50;;;;;;5049869;28;20996;-49
2023/04/14 12:44:19;;;;;;;3.10;1.40;;;12.60;71.50;;;;;;5042095;28;21018;-48
2023/04/14 12:46:49;;;;;;;3.27;1.47;;;12.60;71.60;;;;;;5049549;28;20456;-48
2023/04/14 12:49:31;;;;;;;5.73;1.57;;;12.60;71.10;;;;;;5052875;28;21053;-48
2023/04/14 12:52:01;;;;;;;2.40;1.43;;;12.60;71.50;;;;;;5041030;28;20480;-49
2023/04/14 12:54:46;;;;;;;3.50;1.43;;;12.60;71.00;;;;;;5046099;28;20467;-49
2023/04/14 12:57:15;;;;;;;2.43;1.20;;;12.60;70.90;;;;;;5041480;28;20915;-49
2023/04/14 12:59:44;;;;;;;7.23;2.43;;;12.60;70.90;;;;;;5036825;28;20468;-47
2023/04/14 13:02:14;;;;;;;2.00;1.40;;;12.60;70.10;;;;;;5058909;28;20897;-48
2023/04/14 13:04:43;;;;;;;4.27;1.70;;;12.60;71.10;;;;;;5049609;28;20454;-48
2023/04/14 13:07:13;;;;;;;2.67;1.10;;;12.60;70.50;;;;;;5078266;28;20466;-48